Time;durP1;ratioP1;P1;durP2;ratioP2;P2;SDS_P1;SDS_P2;PMS_P1;PMS_P2;Temp;Humidity;BMP_temperature;BMP_pressure;BME280_temperature;BME280_humidity;BME280_pressure;Samples;Min_cycle;Max_cycle;Signal;HPM_P1;HPM_P2
2022/08/08 00:00:34;;;;;;;2.17;1.65;;;16.50;63.90;;;;;;4942358;28;20089;-69
2022/08/08 00:03:05;;;;;;;1.67;1.50;;;16.50;64.10;;;;;;4945185;28;20114;-69
2022/08/08 00:05:42;;;;;;;3.97;1.67;;;16.50;64.30;;;;;;4945348;29;20074;-69
2022/08/08 00:08:16;;;;;;;3.55;2.03;;;16.50;64.60;;;;;;4946035;29;20506;-69
2022/08/08 00:11:07;;;;;;;2.00;1.48;;;16.50;64.60;;;;;;4946321;29;20456;-69
2022/08/08 00:14:15;;;;;;;4.43;1.63;;;16.50;64.90;;;;;;4940518;28;20035;-69
2022/08/08 00:16:52;;;;;;;2.72;1.73;;;16.50;65.20;;;;;;4942871;29;20436;-69
2022/08/08 00:19:29;;;;;;;3.38;1.58;;;16.50;65.20;;;;;;4940532;29;20107;-69
2022/08/08 00:22:17;;;;;;;4.05;1.80;;;16.50;65.10;;;;;;4945154;28;20075;-70
2022/08/08 00:24:48;;;;;;;2.33;1.58;;;16.40;65.20;;;;;;4943279;28;20046;-69
2022/08/08 00:27:17;;;;;;;1.85;1.38;;;16.40;65.30;;;;;;4945250;29;20572;-69
2022/08/08 00:29:54;;;;;;;2.25;1.42;;;16.40;65.30;;;;;;4945447;29;20038;-69
2022/08/08 00:32:30;;;;;;;3.88;2.08;;;16.40;65.00;;;;;;4957109;28;20035;-69
2022/08/08 00:35:11;;;;;;;4.20;2.10;;;16.30;65.40;;;;;;4941562;28;20476;-69
2022/08/08 00:37:48;;;;;;;2.45;1.55;;;16.30;65.70;;;;;;4938612;29;20110;-69
2022/08/08 00:40:30;;;;;;;2.40;1.52;;;16.20;65.90;;;;;;4942777;29;20030;-69
2022/08/08 00:43:05;;;;;;;1.50;1.40;;;16.20;66.30;;;;;;4942762;29;20066;-69
2022/08/08 00:45:46;;;;;;;2.42;1.80;;;16.10;66.40;;;;;;4940524;28;20137;-68
2022/08/08 00:48:39;;;;;;;2.08;1.70;;;16.10;66.70;;;;;;4945397;29;20505;-69
2022/08/08 00:51:29;;;;;;;3.78;1.65;;;16.00;67.00;;;;;;4944409;28;20077;-69
2022/08/08 00:54:27;;;;;;;2.13;1.50;;;16.00;67.40;;;;;;4941731;28;20035;-69
2022/08/08 00:56:59;;;;;;;2.25;1.83;;;16.00;67.70;;;;;;4910551;29;20137;-70
2022/08/08 00:59:49;;;;;;;3.30;1.90;;;15.90;67.60;;;;;;4943973;29;20107;-69
2022/08/08 01:02:41;;;;;;;2.78;1.92;;;16.00;67.70;;;;;;4945242;29;20042;-70
2022/08/08 01:05:37;;;;;;;1.58;1.45;;;15.90;67.60;;;;;;4942563;29;20027;-69
2022/08/08 01:08:26;;;;;;;2.63;1.90;;;15.90;67.70;;;;;;4942549;29;20075;-69
2022/08/08 01:11:35;;;;;;;2.58;1.85;;;15.80;67.90;;;;;;4945623;29;20038;-70
2022/08/08 01:14:43;;;;;;;2.80;1.60;;;15.80;68.00;;;;;;4946964;28;20118;-70
2022/08/08 01:17:27;;;;;;;2.70;1.83;;;15.80;68.10;;;;;;4937958;29;20032;-70
2022/08/08 01:20:13;;;;;;;3.53;2.13;;;15.70;68.20;;;;;;4947427;29;20041;-69
2022/08/08 01:22:59;;;;;;;2.35;1.90;;;15.70;68.50;;;;;;4947645;28;20410;-69
2022/08/08 01:25:54;;;;;;;2.88;1.75;;;15.70;68.70;;;;;;4959281;28;20110;-70
2022/08/08 01:28:49;;;;;;;2.72;2.20;;;15.70;68.90;;;;;;4957352;28;20448;-69
2022/08/08 01:31:57;;;;;;;4.13;1.80;;;15.60;69.00;;;;;;4940112;29;20500;-69
2022/08/08 01:34:46;;;;;;;4.50;2.25;;;15.60;69.20;;;;;;4937693;28;20036;-69
2022/08/08 01:37:46;;;;;;;2.38;2.17;;;15.60;69.40;;;;;;4920344;29;20142;-69
2022/08/08 01:40:21;;;;;;;3.33;1.98;;;15.50;69.70;;;;;;4943668;29;20042;-69
2022/08/08 01:43:05;;;;;;;2.90;1.90;;;15.50;70.00;;;;;;4943433;28;20042;-69
2022/08/08 01:45:34;;;;;;;2.80;1.90;;;15.40;70.10;;;;;;4956418;28;20027;-69
2022/08/08 01:48:29;;;;;;;6.80;2.15;;;15.50;70.30;;;;;;4946284;29;20115;-69
2022/08/08 01:51:07;;;;;;;4.60;2.33;;;15.50;70.40;;;;;;4931505;29;20044;-69
2022/08/08 01:53:50;;;;;;;3.40;1.90;;;15.40;70.10;;;;;;4942928;28;20055;-69
2022/08/08 01:56:43;;;;;;;3.30;1.92;;;15.30;69.90;;;;;;4959961;28;20035;-69
2022/08/08 01:59:24;;;;;;;3.72;2.28;;;15.30;69.90;;;;;;4940967;29;20036;-69
2022/08/08 02:02:09;;;;;;;6.63;2.30;;;15.30;70.30;;;;;;4939873;29;20034;-69
2022/08/08 02:05:19;;;;;;;3.25;2.10;;;15.20;70.70;;;;;;4936352;29;20032;-69
2022/08/08 02:08:09;;;;;;;2.95;2.33;;;15.20;70.90;;;;;;4937215;29;20062;-69
2022/08/08 02:11:13;;;;;;;3.72;2.40;;;15.20;71.20;;;;;;4954366;28;20039;-69
2022/08/08 02:14:16;;;;;;;2.85;2.00;;;15.20;71.40;;;;;;4918617;28;20133;-70
2022/08/08 02:17:15;;;;;;;4.07;1.95;;;15.10;71.60;;;;;;4933870;28;20046;-69
2022/08/08 02:19:57;;;;;;;3.45;2.17;;;15.10;70.60;;;;;;4958411;28;20579;-70
2022/08/08 02:23:03;;;;;;;2.45;1.60;;;15.00;70.60;;;;;;4942192;29;20032;-69
2022/08/08 02:25:35;;;;;;;3.60;2.03;;;15.00;71.10;;;;;;4956555;28;20035;-69
2022/08/08 02:28:23;;;;;;;2.90;2.28;;;15.00;71.20;;;;;;4937483;29;20053;-69
2022/08/08 02:31:06;;;;;;;2.85;2.10;;;14.90;71.50;;;;;;4939749;29;20054;-69
2022/08/08 02:33:56;;;;;;;3.90;2.70;;;14.90;71.70;;;;;;4939296;28;20526;-69
2022/08/08 02:36:45;;;;;;;4.30;2.00;;;14.80;72.10;;;;;;4944659;29;20043;-69
2022/08/08 02:39:42;;;;;;;2.58;1.90;;;14.80;72.00;;;;;;4942505;29;20563;-69
2022/08/08 02:42:42;;;;;;;6.53;2.33;;;14.70;72.20;;;;;;4942207;29;20038;-69
2022/08/08 02:45:20;;;;;;;4.10;2.60;;;14.70;72.50;;;;;;4955915;28;20420;-69
2022/08/08 02:48:34;;;;;;;3.40;2.30;;;14.60;72.60;;;;;;4938574;29;20460;-69
2022/08/08 02:51:11;;;;;;;3.10;1.90;;;14.70;73.00;;;;;;4942158;29;20074;-69
2022/08/08 02:53:53;;;;;;;2.42;2.22;;;14.60;73.10;;;;;;4938411;28;20758;-69
2022/08/08 02:56:37;;;;;;;3.95;2.20;;;14.60;73.30;;;;;;4942074;29;20078;-69
2022/08/08 02:59:28;;;;;;;3.78;2.20;;;14.60;73.40;;;;;;4939845;29;20027;-69
2022/08/08 03:02:22;;;;;;;3.20;1.95;;;14.60;73.60;;;;;;4943960;29;20053;-69
2022/08/08 03:05:24;;;;;;;2.88;1.95;;;14.60;73.60;;;;;;4935030;29;20744;-69
2022/08/08 03:08:05;;;;;;;2.65;1.85;;;14.60;73.30;;;;;;4952444;28;20122;-69
2022/08/08 03:10:31;;;;;;;3.60;2.20;;;14.60;72.90;;;;;;4937198;29;20492;-69
2022/08/08 03:13:27;;;;;;;6.47;2.28;;;14.50;72.80;;;;;;4944578;28;20031;-70
2022/08/08 03:16:12;;;;;;;2.53;2.03;;;14.50;73.10;;;;;;4945419;28;20444;-69
2022/08/08 03:18:47;;;;;;;3.50;2.20;;;14.40;73.30;;;;;;4944111;28;20028;-69
2022/08/08 03:21:13;;;;;;;6.03;2.30;;;14.40;73.60;;;;;;4922918;29;20035;-69
2022/08/08 03:23:39;;;;;;;3.35;2.35;;;14.40;73.60;;;;;;4940785;28;20053;-69
2022/08/08 03:26:05;;;;;;;4.03;2.30;;;14.50;73.70;;;;;;4935370;29;20031;-69
2022/08/08 03:28:40;;;;;;;4.75;2.80;;;14.40;73.90;;;;;;4937475;29;20062;-70
2022/08/08 03:33:53;;;;;;;2.88;2.03;;;14.40;74.20;;;;;;4939672;28;20046;-69
2022/08/08 03:36:18;;;;;;;3.78;2.38;;;14.40;74.40;;;;;;4940525;29;20036;-69
2022/08/08 03:38:49;;;;;;;4.47;2.67;;;14.40;74.70;;;;;;4942557;29;20570;-69
2022/08/08 03:41:16;;;;;;;3.42;2.10;;;14.40;74.80;;;;;;4948273;28;20032;-69
2022/08/08 03:44:03;;;;;;;3.58;2.10;;;14.40;74.50;;;;;;4938390;28;20035;-69
2022/08/08 03:46:49;;;;;;;5.95;2.28;;;14.40;74.40;;;;;;4938648;29;20165;-69
2022/08/08 03:49:20;;;;;;;;;;;14.40;74.40;;;;;;4943338;29;20555;-70
2022/08/08 03:51:55;;;;;;;3.35;2.20;;;14.40;73.20;;;;;;4943028;29;20683;-69
2022/08/08 03:54:25;;;;;;;4.57;2.38;;;14.30;73.20;;;;;;4941466;29;20063;-69
2022/08/08 03:56:51;;;;;;;8.38;2.53;;;14.30;73.70;;;;;;4940573;29;20027;-69
2022/08/08 03:59:17;;;;;;;4.68;2.28;;;14.30;73.90;;;;;;4942839;29;20028;-69
2022/08/08 04:01:44;;;;;;;2.50;1.95;;;14.20;74.20;;;;;;4943939;29;20035;-69
2022/08/08 04:04:10;;;;;;;4.10;2.45;;;14.20;74.50;;;;;;4942126;28;20036;-70
2022/08/08 04:06:39;;;;;;;3.47;2.40;;;14.20;74.20;;;;;;4936722;29;20070;-68
2022/08/08 04:09:07;;;;;;;3.88;2.33;;;14.30;74.20;;;;;;4943944;29;20035;-69
2022/08/08 04:11:39;;;;;;;3.58;2.58;;;14.20;74.10;;;;;;4958421;28;20024;-69
2022/08/08 04:14:05;;;;;;;2.70;2.13;;;14.20;74.40;;;;;;4942597;28;20547;-68
2022/08/08 04:16:32;;;;;;;5.47;2.50;;;14.20;74.50;;;;;;4944686;29;20031;-69
2022/08/08 04:18:58;;;;;;;2.83;2.17;;;14.20;74.60;;;;;;4938160;29;20028;-69
2022/08/08 04:21:24;;;;;;;3.85;2.17;;;14.20;74.70;;;;;;4939173;29;20035;-69
2022/08/08 04:23:55;;;;;;;3.75;2.33;;;14.20;75.10;;;;;;4951300;28;20045;-69
2022/08/08 04:26:21;;;;;;;6.03;2.42;;;14.20;75.30;;;;;;4973731;28;20027;-69
2022/08/08 04:28:47;;;;;;;3.95;2.30;;;14.20;75.70;;;;;;4954742;28;20496;-69
2022/08/08 04:31:12;;;;;;;2.50;2.22;;;14.20;76.00;;;;;;4951462;28;20565;-69
2022/08/08 04:33:38;;;;;;;2.60;2.10;;;14.20;76.20;;;;;;4952978;28;20123;-69
2022/08/08 04:36:05;;;;;;;3.67;2.30;;;14.30;76.10;;;;;;4952817;28;20053;-68
2022/08/08 04:38:31;;;;;;;4.90;2.60;;;14.30;75.80;;;;;;4942542;29;20027;-69
2022/08/08 04:40:58;;;;;;;3.50;2.00;;;14.30;75.90;;;;;;4945022;29;20059;-69
2022/08/08 04:43:25;;;;;;;4.72;2.28;;;14.40;75.80;;;;;;4946733;28;20047;-69
2022/08/08 04:45:54;;;;;;;3.05;2.15;;;14.40;75.90;;;;;;4943101;29;20925;-69
2022/08/08 04:48:19;;;;;;;3.25;2.60;;;14.40;76.00;;;;;;4946356;29;20043;-69
2022/08/08 04:50:45;;;;;;;3.47;2.38;;;14.40;76.10;;;;;;4944936;29;20035;-69
2022/08/08 04:53:13;;;;;;;3.53;2.53;;;14.50;76.20;;;;;;4945021;28;20032;-69
2022/08/08 04:55:41;;;;;;;3.72;2.50;;;14.50;76.30;;;;;;4939724;29;20066;-69
2022/08/08 04:58:07;;;;;;;3.47;2.15;;;14.50;76.40;;;;;;4944009;29;20472;-69
2022/08/08 05:00:33;;;;;;;4.32;2.22;;;14.60;76.70;;;;;;4937765;29;20635;-71
2022/08/08 05:02:59;;;;;;;3.25;2.40;;;14.60;76.70;;;;;;4940108;29;20094;-69
2022/08/08 05:05:25;;;;;;;4.97;2.33;;;14.70;76.70;;;;;;4946813;29;20039;-70
2022/08/08 05:07:51;;;;;;;3.63;2.08;;;14.70;76.60;;;;;;4946861;29;20244;-70
2022/08/08 05:10:17;;;;;;;7.13;2.72;;;14.80;76.70;;;;;;4945529;29;20039;-69
2022/08/08 05:12:42;;;;;;;4.63;2.88;;;14.90;77.00;;;;;;4945273;28;20027;-69
2022/08/08 05:15:09;;;;;;;4.20;2.83;;;14.90;77.00;;;;;;4944351;29;20036;-69
2022/08/08 05:17:35;;;;;;;5.15;2.80;;;14.90;76.90;;;;;;4938012;29;20027;-69
2022/08/08 05:20:01;;;;;;;4.57;2.58;;;15.00;76.90;;;;;;4940295;29;20102;-69
2022/08/08 05:22:35;;;;;;;2.97;2.42;;;15.10;77.20;;;;;;4946688;29;20054;-68
2022/08/08 05:25:03;;;;;;;4.20;2.50;;;15.10;77.10;;;;;;4946653;28;20146;-70
2022/08/08 05:27:29;;;;;;;3.90;2.67;;;15.20;77.20;;;;;;4946657;29;20024;-68
2022/08/08 05:29:54;;;;;;;6.30;2.75;;;15.20;77.00;;;;;;4943242;29;20042;-68
2022/08/08 05:32:23;;;;;;;6.68;2.65;;;15.30;77.00;;;;;;4942697;28;20039;-68
2022/08/08 05:34:51;;;;;;;7.05;3.40;;;15.40;77.10;;;;;;4945689;28;20527;-68
2022/08/08 05:37:24;;;;;;;5.45;3.30;;;15.50;77.30;;;;;;4939030;29;20035;-69
2022/08/08 05:39:52;;;;;;;2.72;2.28;;;15.60;77.50;;;;;;4937703;29;20122;-69
2022/08/08 05:42:26;;;;;;;5.88;3.20;;;15.60;77.40;;;;;;4944116;28;20688;-69
2022/08/08 05:44:52;;;;;;;4.05;3.05;;;15.70;77.50;;;;;;4961183;28;20039;-69
2022/08/08 05:47:21;;;;;;;6.50;2.63;;;15.90;77.30;;;;;;4942494;29;20441;-69
2022/08/08 05:49:48;;;;;;;3.45;2.33;;;16.00;77.40;;;;;;4959114;28;20027;-67
2022/08/08 05:52:15;;;;;;;4.88;2.60;;;16.40;77.40;;;;;;4940818;29;20071;-70
2022/08/08 05:54:40;;;;;;;7.10;2.38;;;16.90;76.30;;;;;;4956466;28;20038;-69
2022/08/08 05:57:16;;;;;;;5.22;2.50;;;17.30;74.20;;;;;;4943311;29;20036;-69
2022/08/08 05:59:48;;;;;;;7.30;2.63;;;17.50;73.10;;;;;;4941163;29;20436;-69
2022/08/08 06:05:14;;;;;;;20.48;3.50;;;17.60;72.40;;;;;;4943196;29;20038;-69
2022/08/08 06:07:41;;;;;;;15.05;3.22;;;17.60;72.20;;;;;;4944225;29;20520;-69
2022/08/08 06:10:10;;;;;;;7.55;3.40;;;17.60;72.10;;;;;;4939496;29;20035;-69
2022/08/08 06:12:37;;;;;;;8.10;3.17;;;17.60;71.00;;;;;;4956597;28;20881;-68
2022/08/08 06:15:05;;;;;;;3.95;2.28;;;17.70;70.10;;;;;;4936994;29;20515;-69
2022/08/08 06:17:36;;;;;;;4.55;2.72;;;17.80;70.20;;;;;;4946069;29;20027;-68
2022/08/08 06:20:06;;;;;;;5.97;2.90;;;17.90;69.90;;;;;;4938755;29;20039;-68
2022/08/08 06:22:32;;;;;;;4.63;2.80;;;18.00;69.90;;;;;;4940857;29;20055;-68
2022/08/08 06:25:01;;;;;;;5.57;2.47;;;18.10;69.30;;;;;;4944644;28;20043;-68
2022/08/08 06:27:45;;;;;;;7.55;2.88;;;18.20;69.00;;;;;;4943641;29;20035;-68
2022/08/08 06:30:13;;;;;;;4.03;2.80;;;18.40;68.80;;;;;;4938697;29;20031;-69
2022/08/08 06:32:48;;;;;;;4.95;2.50;;;18.50;68.50;;;;;;4940104;28;20836;-69
2022/08/08 06:35:16;;;;;;;3.60;2.63;;;18.50;68.40;;;;;;4936717;29;20512;-69
2022/08/08 06:38:03;;;;;;;2.50;2.17;;;18.60;67.50;;;;;;4937874;29;20066;-69
2022/08/08 06:40:32;;;;;;;2.45;2.15;;;18.70;67.00;;;;;;4960610;28;20027;-69
2022/08/08 06:43:02;;;;;;;4.47;2.42;;;18.80;66.00;;;;;;4944663;28;20085;-69
2022/08/08 06:45:36;;;;;;;3.78;2.40;;;18.90;65.30;;;;;;4947178;28;20031;-69
2022/08/08 06:48:03;;;;;;;6.35;3.00;;;19.00;65.30;;;;;;4943407;29;20042;-69
2022/08/08 06:50:34;;;;;;;3.22;2.50;;;19.20;66.00;;;;;;4940386;29;20054;-68
2022/08/08 06:53:03;;;;;;;4.45;2.50;;;19.30;65.00;;;;;;4935955;28;20032;-69
2022/08/08 06:55:29;;;;;;;4.90;2.70;;;19.40;64.30;;;;;;4945170;29;20138;-68
2022/08/08 06:57:56;;;;;;;3.42;2.42;;;19.50;63.50;;;;;;4940867;29;20039;-69
2022/08/08 07:00:21;;;;;;;3.47;2.40;;;19.60;64.10;;;;;;4944607;29;20039;-68
2022/08/08 07:02:59;;;;;;;7.60;2.53;;;19.80;64.70;;;;;;4944123;28;20503;-69
2022/08/08 07:05:25;;;;;;;3.55;2.85;;;19.90;64.00;;;;;;4940613;29;20078;-69
2022/08/08 07:08:00;;;;;;;3.97;2.47;;;20.00;63.70;;;;;;4944523;29;20039;-69
2022/08/08 07:10:32;;;;;;;;;;;20.10;63.30;;;;;;4945320;29;20086;-69
2022/08/08 07:13:02;;;;;;;5.03;2.60;;;20.30;63.40;;;;;;4937110;28;19937;-69
2022/08/08 07:15:43;;;;;;;4.13;2.45;;;20.40;62.40;;;;;;4935104;29;20031;-69
2022/08/08 07:18:09;;;;;;;3.47;2.20;;;20.50;60.00;;;;;;4941747;29;20086;-69
2022/08/08 07:20:43;;;;;;;2.95;2.17;;;20.60;59.60;;;;;;4958940;28;20116;-69
2022/08/08 07:23:19;;;;;;;3.15;2.17;;;20.70;56.60;;;;;;4944686;28;20122;-69
2022/08/08 07:25:49;;;;;;;3.35;1.90;;;20.90;56.00;;;;;;4937679;29;20043;-69
2022/08/08 07:28:18;;;;;;;5.38;2.45;;;21.00;55.70;;;;;;4941860;29;20178;-69
2022/08/08 07:30:45;;;;;;;4.03;2.00;;;21.10;54.20;;;;;;4941365;29;20094;-69
2022/08/08 07:33:13;;;;;;;3.90;2.10;;;21.20;53.30;;;;;;4934660;29;20082;-69
2022/08/08 07:35:41;;;;;;;2.53;2.00;;;21.30;53.50;;;;;;4945156;29;20796;-67
2022/08/08 07:38:09;;;;;;;3.13;2.08;;;21.50;53.90;;;;;;4959055;28;20036;-69
2022/08/08 07:40:47;;;;;;;3.38;2.33;;;21.60;53.60;;;;;;4942664;29;20408;-68
2022/08/08 07:43:15;;;;;;;4.50;2.25;;;21.70;53.80;;;;;;4940635;28;20036;-69
2022/08/08 07:45:52;;;;;;;5.55;2.33;;;21.80;53.40;;;;;;4937291;29;20032;-69
2022/08/08 07:48:18;;;;;;;6.57;2.40;;;21.90;52.80;;;;;;4938624;29;20148;-69
2022/08/08 07:50:46;;;;;;;4.95;2.42;;;22.10;52.60;;;;;;4944287;29;20499;-69
2022/08/08 07:53:25;;;;;;;5.70;2.47;;;22.20;52.00;;;;;;4942638;28;20036;-69
2022/08/08 07:55:56;;;;;;;6.30;2.05;;;22.40;51.00;;;;;;4945519;28;20035;-69
2022/08/08 07:58:31;;;;;;;10.25;2.22;;;22.40;50.30;;;;;;4947755;29;20766;-68
2022/08/08 08:01:04;;;;;;;5.47;2.10;;;22.60;50.70;;;;;;4942726;29;20090;-69
2022/08/08 08:03:58;;;;;;;3.78;2.38;;;22.70;49.60;;;;;;4953946;28;20423;-69
2022/08/08 08:06:27;;;;;;;3.38;2.08;;;22.80;48.70;;;;;;4958360;28;20159;-69
2022/08/08 08:08:59;;;;;;;3.20;2.13;;;22.90;49.40;;;;;;4946089;29;20098;-69
2022/08/08 08:11:32;;;;;;;3.30;1.92;;;22.90;48.40;;;;;;4947576;29;20031;-69
2022/08/08 08:14:06;;;;;;;4.53;1.90;;;23.00;48.80;;;;;;4944387;28;20513;-69
2022/08/08 08:16:42;;;;;;;6.18;1.80;;;23.10;48.40;;;;;;4947934;29;20110;-69
2022/08/08 08:19:12;;;;;;;3.03;1.92;;;23.10;48.10;;;;;;4946418;29;20563;-69
2022/08/08 08:21:38;;;;;;;5.10;2.10;;;23.30;48.20;;;;;;4960042;28;20069;-69
2022/08/08 08:24:05;;;;;;;6.55;1.98;;;23.30;47.10;;;;;;4940955;28;20054;-69
2022/08/08 08:26:31;;;;;;;4.47;1.90;;;23.40;47.70;;;;;;4945203;29;20038;-69
2022/08/08 08:28:57;;;;;;;4.47;2.17;;;23.50;48.10;;;;;;4938648;29;20187;-69
2022/08/08 08:31:24;;;;;;;2.47;1.67;;;23.60;47.20;;;;;;4942820;29;20035;-69
2022/08/08 08:33:51;;;;;;;7.13;2.20;;;23.70;46.80;;;;;;4946580;28;20820;-69
2022/08/08 08:36:18;;;;;;;7.70;2.30;;;23.90;47.00;;;;;;4946555;29;20040;-69
2022/08/08 08:38:44;;;;;;;4.07;1.92;;;24.00;45.60;;;;;;4946179;29;20436;-69
2022/08/08 08:41:13;;;;;;;4.50;1.85;;;24.10;45.20;;;;;;4943409;29;20031;-69
2022/08/08 08:43:45;;;;;;;4.43;2.10;;;24.10;45.00;;;;;;4936707;28;20086;-68
2022/08/08 08:46:12;;;;;;;7.40;2.13;;;24.20;44.70;;;;;;4940168;29;20063;-69
2022/08/08 08:48:41;;;;;;;3.22;1.80;;;24.30;44.70;;;;;;4946961;29;20066;-69
2022/08/08 08:51:13;;;;;;;3.67;1.77;;;24.40;44.50;;;;;;4943467;29;20040;-69
2022/08/08 08:53:51;;;;;;;2.28;1.70;;;24.50;43.80;;;;;;4947365;28;20035;-69
2022/08/08 08:56:24;;;;;;;2.90;1.60;;;24.50;42.40;;;;;;4946318;29;20070;-69
2022/08/08 08:58:51;;;;;;;5.72;1.88;;;24.70;42.50;;;;;;4941878;29;20043;-68
2022/08/08 09:01:26;;;;;;;4.45;1.73;;;24.80;42.10;;;;;;4945002;29;20063;-69
2022/08/08 09:03:59;;;;;;;4.00;2.00;;;24.90;41.90;;;;;;4940397;29;20050;-69
2022/08/08 09:06:37;;;;;;;3.13;1.40;;;25.00;42.00;;;;;;4946735;28;20050;-69
2022/08/08 09:09:15;;;;;;;3.45;1.67;;;25.00;41.80;;;;;;4956064;28;20465;-69
2022/08/08 09:11:46;;;;;;;4.70;1.40;;;25.10;41.10;;;;;;4946633;29;20039;-70
2022/08/08 09:14:12;;;;;;;3.10;1.42;;;25.20;40.70;;;;;;4945889;28;20031;-69
2022/08/08 09:16:39;;;;;;;2.88;1.58;;;25.30;40.70;;;;;;4947094;29;20015;-69
2022/08/08 09:19:05;;;;;;;1.85;1.40;;;25.30;40.00;;;;;;4944684;29;20500;-69
2022/08/08 09:21:33;;;;;;;3.75;1.70;;;25.30;40.00;;;;;;4941451;29;20126;-69
2022/08/08 09:24:01;;;;;;;4.45;1.80;;;25.40;40.50;;;;;;4944096;28;20038;-69
2022/08/08 09:26:46;;;;;;;2.67;1.80;;;25.50;39.90;;;;;;4940332;29;20039;-69
2022/08/08 09:29:21;;;;;;;2.47;1.50;;;25.50;39.90;;;;;;4957730;28;20068;-69
2022/08/08 09:32:01;;;;;;;3.03;1.70;;;25.60;39.00;;;;;;4946371;29;20411;-69
2022/08/08 09:34:33;;;;;;;3.05;1.60;;;25.50;39.30;;;;;;4943773;28;20045;-68
2022/08/08 09:37:04;;;;;;;3.78;1.73;;;25.60;40.10;;;;;;4946662;29;20208;-69
2022/08/08 09:39:52;;;;;;;8.93;2.70;;;25.80;39.90;;;;;;4946603;29;20038;-69
2022/08/08 09:42:22;;;;;;;3.88;1.42;;;25.90;39.40;;;;;;4954645;28;20062;-69
2022/08/08 09:45:08;;;;;;;4.38;1.60;;;26.00;39.10;;;;;;4939373;28;20031;-70
2022/08/08 09:47:39;;;;;;;2.03;1.23;;;26.10;39.70;;;;;;4940556;29;20031;-69
2022/08/08 09:50:15;;;;;;;9.10;1.95;;;26.20;38.80;;;;;;4945427;29;20054;-69
2022/08/08 09:52:46;;;;;;;11.90;1.92;;;26.40;39.10;;;;;;4946160;28;20027;-69
2022/08/08 09:55:12;;;;;;;2.58;1.35;;;26.60;39.90;;;;;;4942462;29;20720;-69
2022/08/08 09:57:39;;;;;;;4.22;1.50;;;26.70;38.10;;;;;;4942791;29;20023;-68
2022/08/08 10:00:10;;;;;;;2.00;1.63;;;26.70;38.30;;;;;;4939129;29;20031;-70
2022/08/08 10:02:42;;;;;;;1.90;1.38;;;26.50;37.40;;;;;;4940264;29;20073;-68
2022/08/08 10:05:15;;;;;;;1.35;1.23;;;26.40;37.60;;;;;;4937056;29;20545;-68
2022/08/08 10:07:49;;;;;;;8.68;1.73;;;26.20;37.60;;;;;;4946503;29;20085;-69
2022/08/08 10:10:38;;;;;;;5.18;1.50;;;26.10;38.40;;;;;;4944488;28;20141;-68
2022/08/08 10:13:25;;;;;;;2.08;1.50;;;26.00;38.10;;;;;;4941872;28;20126;-68
2022/08/08 10:15:53;;;;;;;4.00;1.63;;;26.00;38.30;;;;;;4941492;29;20027;-68
2022/08/08 10:18:26;;;;;;;1.40;1.30;;;26.00;38.20;;;;;;4952591;28;20027;-68
2022/08/08 10:21:00;;;;;;;3.63;1.45;;;26.10;37.60;;;;;;4954984;28;20495;-67
2022/08/08 10:23:42;;;;;;;5.25;1.63;;;26.20;38.50;;;;;;4953541;28;20046;-67
2022/08/08 10:26:21;;;;;;;3.50;1.33;;;26.20;37.50;;;;;;4944346;29;20146;-67
2022/08/08 10:28:59;;;;;;;2.63;1.42;;;26.30;37.70;;;;;;4945359;29;20043;-67
2022/08/08 10:34:16;;;;;;;1.65;1.17;;;26.50;37.50;;;;;;4940837;28;20043;-67
2022/08/08 10:36:43;;;;;;;2.15;1.00;;;26.50;37.80;;;;;;4941929;29;20039;-68
2022/08/08 10:39:24;;;;;;;2.20;1.10;;;26.60;37.50;;;;;;4937783;29;20040;-68
2022/08/08 10:42:02;;;;;;;4.28;1.40;;;26.70;37.30;;;;;;4939211;29;20883;-67
2022/08/08 10:44:35;;;;;;;1.92;1.30;;;26.90;37.50;;;;;;4946161;28;20454;-68
2022/08/08 10:47:17;;;;;;;1.60;1.08;;;27.00;37.00;;;;;;4942717;29;20042;-67
2022/08/08 10:49:59;;;;;;;2.08;1.40;;;27.10;36.90;;;;;;4943252;29;20027;-67
2022/08/08 10:52:32;;;;;;;4.20;1.40;;;27.30;36.40;;;;;;4941724;29;20120;-67
2022/08/08 10:55:00;;;;;;;5.07;1.67;;;27.40;36.40;;;;;;4940401;28;20094;-67
2022/08/08 10:57:27;;;;;;;1.77;1.45;;;27.50;36.90;;;;;;4940112;29;20031;-67
2022/08/08 10:59:53;;;;;;;2.33;1.45;;;27.50;36.10;;;;;;4938133;28;20035;-67
2022/08/08 11:02:23;;;;;;;3.17;1.40;;;27.50;35.90;;;;;;4940681;29;20488;-68
2022/08/08 11:04:49;;;;;;;3.25;1.42;;;27.60;36.20;;;;;;4945458;28;20407;-67
2022/08/08 11:07:34;;;;;;;1.48;1.20;;;27.70;35.90;;;;;;4943461;28;20039;-68
2022/08/08 11:10:12;;;;;;;2.55;1.40;;;27.80;36.00;;;;;;4941551;29;20062;-68
2022/08/08 11:12:53;;;;;;;2.92;1.25;;;27.90;35.30;;;;;;4941027;29;20062;-68
2022/08/08 11:15:22;;;;;;;3.75;1.52;;;28.10;36.00;;;;;;4939713;29;20452;-67
2022/08/08 11:17:48;;;;;;;6.50;1.85;;;28.20;35.90;;;;;;4938985;29;20031;-68
2022/08/08 11:20:33;;;;;;;2.92;1.67;;;28.30;35.50;;;;;;4936904;29;20556;-67
2022/08/08 11:23:01;;;;;;;3.30;1.57;;;28.40;35.40;;;;;;4942285;28;20463;-67
2022/08/08 11:25:29;;;;;;;13.57;2.35;;;28.30;35.80;;;;;;4944062;29;20567;-67
2022/08/08 11:27:58;;;;;;;5.50;1.40;;;28.30;35.90;;;;;;4943324;29;20038;-67
2022/08/08 11:30:27;;;;;;;1.48;1.35;;;28.30;36.10;;;;;;4943009;28;20082;-68
2022/08/08 11:33:00;;;;;;;3.88;1.42;;;28.20;34.60;;;;;;4943839;28;20035;-68
2022/08/08 11:35:27;;;;;;;2.58;1.48;;;28.30;35.30;;;;;;4943506;29;20114;-67
2022/08/08 11:37:53;;;;;;;2.25;1.50;;;28.30;35.20;;;;;;4941615;28;20020;-68
2022/08/08 11:40:19;;;;;;;2.38;1.42;;;28.40;34.80;;;;;;4944548;29;20031;-67
2022/08/08 11:42:44;;;;;;;2.20;1.50;;;28.40;35.30;;;;;;4948546;28;20031;-67
2022/08/08 11:45:12;;;;;;;4.22;1.55;;;28.40;35.40;;;;;;4946864;28;20067;-68
2022/08/08 11:47:39;;;;;;;3.80;1.60;;;28.40;35.30;;;;;;4946415;29;20059;-68
2022/08/08 11:50:10;;;;;;;2.35;1.60;;;28.30;34.40;;;;;;4945521;29;20130;-68
2022/08/08 11:52:36;;;;;;;2.80;1.38;;;28.20;35.00;;;;;;4944171;28;20035;-67
2022/08/08 11:55:17;;;;;;;5.60;1.25;;;28.10;35.20;;;;;;4940789;28;20560;-67
2022/08/08 11:57:44;;;;;;;1.95;1.48;;;28.10;35.30;;;;;;4938959;29;20057;-68
2022/08/08 12:00:16;;;;;;;4.97;2.03;;;28.10;35.00;;;;;;4946702;29;20039;-67
2022/08/08 12:02:47;;;;;;;4.30;1.55;;;28.10;35.20;;;;;;4962101;28;20031;-67
2022/08/08 12:05:13;;;;;;;2.55;1.35;;;28.10;35.20;;;;;;4945703;28;20127;-68
2022/08/08 12:07:47;;;;;;;2.05;1.20;;;28.10;35.00;;;;;;4946047;29;20054;-67
2022/08/08 12:10:15;;;;;;;2.85;1.42;;;28.10;35.30;;;;;;4945820;29;20790;-67
2022/08/08 12:12:42;;;;;;;1.90;1.40;;;28.10;36.20;;;;;;4942896;29;20031;-68
2022/08/08 12:15:09;;;;;;;3.55;1.65;;;28.30;35.30;;;;;;4947511;28;20490;-68
2022/08/08 12:17:37;;;;;;;2.15;1.60;;;28.50;35.10;;;;;;4961566;28;20038;-68
2022/08/08 12:20:05;;;;;;;2.55;1.73;;;28.40;34.70;;;;;;4958370;28;20039;-68
2022/08/08 12:22:32;;;;;;;3.25;1.50;;;28.50;35.00;;;;;;4943988;29;20043;-68
2022/08/08 12:24:59;;;;;;;3.88;1.70;;;28.50;34.60;;;;;;4945771;28;20769;-68
2022/08/08 12:27:35;;;;;;;3.00;1.30;;;28.50;34.30;;;;;;4944563;29;20710;-67
2022/08/08 12:30:01;;;;;;;4.07;1.30;;;28.60;34.50;;;;;;4941865;28;20054;-68
2022/08/08 12:32:27;;;;;;;6.32;1.63;;;28.70;33.60;;;;;;4941185;29;20066;-67
2022/08/08 12:34:56;;;;;;;3.58;1.30;;;28.80;34.30;;;;;;4939342;28;20042;-67
2022/08/08 12:37:28;;;;;;;4.60;1.40;;;28.80;34.20;;;;;;4944262;29;20063;-68
2022/08/08 12:39:55;;;;;;;4.70;1.45;;;28.80;34.60;;;;;;4947657;29;20023;-68
2022/08/08 12:42:21;;;;;;;2.83;1.50;;;28.60;34.10;;;;;;4944093;29;20597;-68
2022/08/08 12:44:47;;;;;;;1.42;1.30;;;28.70;34.60;;;;;;4945569;28;20035;-68
2022/08/08 12:47:16;;;;;;;1.60;1.40;;;28.80;33.80;;;;;;4942226;29;20046;-67
2022/08/08 12:49:52;;;;;;;2.15;1.60;;;28.70;33.30;;;;;;4942883;28;20027;-68
2022/08/08 12:52:20;;;;;;;2.28;1.20;;;28.80;34.00;;;;;;4940511;29;20039;-68
2022/08/08 12:54:46;;;;;;;9.68;1.73;;;28.80;34.00;;;;;;4941430;28;20082;-67
2022/08/08 12:57:22;;;;;;;2.75;1.35;;;28.70;34.00;;;;;;4947415;29;20785;-67
2022/08/08 12:59:53;;;;;;;2.22;1.45;;;28.80;34.30;;;;;;4947264;29;20027;-67
2022/08/08 13:02:38;;;;;;;3.05;1.40;;;28.80;34.00;;;;;;4944088;28;20104;-67
2022/08/08 13:05:16;;;;;;;5.40;1.48;;;28.80;34.30;;;;;;4943057;29;20472;-68
2022/08/08 13:07:42;;;;;;;1.73;1.13;;;28.80;34.50;;;;;;4942641;29;20835;-67
2022/08/08 13:10:10;;;;;;;1.60;1.27;;;28.90;34.20;;;;;;4942480;29;20126;-67
2022/08/08 13:12:39;;;;;;;4.20;1.50;;;28.90;33.50;;;;;;4940932;29;20031;-68
2022/08/08 13:15:07;;;;;;;3.45;1.58;;;28.90;33.10;;;;;;4944291;29;20039;-68
2022/08/08 13:17:34;;;;;;;2.00;1.48;;;28.90;34.20;;;;;;4943976;29;20031;-67
2022/08/08 13:20:01;;;;;;;2.92;1.20;;;28.80;32.80;;;;;;4945420;28;20118;-67
2022/08/08 13:22:27;;;;;;;1.98;1.63;;;28.70;33.20;;;;;;4944222;29;20042;-67
2022/08/08 13:24:53;;;;;;;1.83;1.52;;;28.70;33.50;;;;;;4942930;28;20495;-67
2022/08/08 13:27:26;;;;;;;2.55;1.40;;;28.60;33.50;;;;;;4941243;29;20032;-67
2022/08/08 13:30:03;;;;;;;1.75;1.48;;;28.50;33.60;;;;;;4940027;28;20043;-67
2022/08/08 13:32:36;;;;;;;2.80;1.48;;;28.40;33.60;;;;;;4940216;29;20035;-67